Merino, Colorado
Current Conditions -  °F | °C
As of 1:30 PM on Tuesday 25 Nov 2014 (Local Time) from KSTK Reporting Station
Overcast Overcast  
Wind Chill: 52°   Ceiling: 9500
Heat Index: 52°   Visibility: 10mi
Dew Point: 21°   Wind: 20mph
Humidity: 30%   Direction: 290°WNW
Pressure: 29.84"   Gusts: 26mph
Location:  40.48°N, 103.35°W
Report Text: KSTK 252030Z AUTO 29017G23KT 10SM SCT070 OVC095 11/M06 A2984 RMK AO2
Loading
Personal Weather Stations






























Interactive Weather Map New forecast layout! Learn more

10-Day Weather Forecast

Advertisements
Track Severe Weather on mobile